createdAt,value
2019-01-30T00:01:00.552Z,8.15
2019-01-30T00:02:04.307Z,7.72
2019-01-30T00:03:08.040Z,7.55
2019-01-30T00:04:11.624Z,8.00
2019-01-30T00:05:15.284Z,8.13
2019-01-30T00:06:18.962Z,7.90
2019-01-30T00:07:22.633Z,7.60
2019-01-30T00:08:26.269Z,7.58
2019-01-30T00:09:29.923Z,8.88
2019-01-30T00:10:33.576Z,8.65
2019-01-30T00:11:37.238Z,8.75
2019-01-30T00:12:40.850Z,9.05
2019-01-30T00:13:44.445Z,7.75
2019-01-30T00:14:48.111Z,8.93
2019-01-30T00:15:56.408Z,8.25
2019-01-30T00:16:56.991Z,9.23
2019-01-30T00:18:00.628Z,8.83
2019-01-30T00:19:04.394Z,8.58
2019-01-30T00:20:10.770Z,8.78
2019-01-30T00:21:14.393Z,9.10
2019-01-30T00:22:17.997Z,8.13
2019-01-30T00:23:21.675Z,9.18
2019-01-30T00:24:25.283Z,8.85
2019-01-30T00:25:28.893Z,8.50
2019-01-30T00:26:32.464Z,7.95
2019-01-30T00:27:36.154Z,7.28
2019-01-30T00:28:39.814Z,9.10
2019-01-30T00:29:43.419Z,7.80
2019-01-30T00:30:47.005Z,8.85
2019-01-30T00:31:50.670Z,7.90
2019-01-30T00:32:54.277Z,8.05
2019-01-30T00:33:57.893Z,8.00
2019-01-30T00:35:01.480Z,8.70
2019-01-30T00:36:05.439Z,8.68
2019-01-30T00:37:09.078Z,8.40
2019-01-30T00:38:12.703Z,8.33
2019-01-30T00:39:16.299Z,7.85
2019-01-30T00:40:22.409Z,8.15
2019-01-30T00:41:26.072Z,6.87
2019-01-30T00:42:29.673Z,7.75
2019-01-30T00:43:33.251Z,7.08
2019-01-30T00:44:36.839Z,7.12
2019-01-30T00:45:40.486Z,7.00
2019-01-30T00:46:44.095Z,7.37
2019-01-30T00:47:47.772Z,7.33
2019-01-30T00:48:51.381Z,6.92
2019-01-30T00:49:54.993Z,7.40
2019-01-30T00:50:58.687Z,7.80
2019-01-30T00:52:02.335Z,8.03
2019-01-30T00:53:06.013Z,7.03
2019-01-30T00:54:09.593Z,7.12
2019-01-30T00:55:14.015Z,7.97
2019-01-30T00:56:17.644Z,7.33
2019-01-30T00:57:21.229Z,7.58
2019-01-30T00:58:24.893Z,7.47
2019-01-30T00:59:28.570Z,7.50
2019-01-30T01:00:32.252Z,7.45
2019-01-30T01:01:35.951Z,7.12
2019-01-30T01:02:39.621Z,7.35
2019-01-30T01:03:43.336Z,8.28
2019-01-30T01:04:46.966Z,6.45
2019-01-30T01:05:50.579Z,7.33
2019-01-30T01:06:54.246Z,6.70
2019-01-30T01:07:58.061Z,8.08
2019-01-30T01:09:01.730Z,6.78
2019-01-30T01:10:11.853Z,7.90
2019-01-30T01:11:15.519Z,7.42
2019-01-30T01:12:19.199Z,7.12
2019-01-30T01:13:22.826Z,7.05
2019-01-30T01:14:26.512Z,7.33
2019-01-30T01:15:30.229Z,7.20
2019-01-30T01:16:33.839Z,8.38
2019-01-30T01:17:37.510Z,6.50
2019-01-30T01:18:41.077Z,7.40
2019-01-30T01:19:44.736Z,6.83
2019-01-30T01:20:48.452Z,7.17
2019-01-30T01:21:52.064Z,7.12
2019-01-30T01:22:55.743Z,6.45
2019-01-30T01:23:59.352Z,7.20
2019-01-30T01:25:03.156Z,6.62
2019-01-30T01:26:06.744Z,7.53
2019-01-30T01:27:10.399Z,7.45
2019-01-30T01:28:14.048Z,7.75
2019-01-30T01:29:17.735Z,6.80
2019-01-30T01:30:26.434Z,7.83
2019-01-30T01:31:30.072Z,7.80
2019-01-30T01:32:33.681Z,7.17
2019-01-30T01:33:37.343Z,6.28
2019-01-30T01:34:40.958Z,6.78
2019-01-30T01:35:44.853Z,7.15
2019-01-30T01:36:48.510Z,7.35
2019-01-30T01:37:52.279Z,6.95
2019-01-30T01:38:55.900Z,7.37
2019-01-30T01:39:59.515Z,7.17
2019-01-30T01:41:03.179Z,7.00
2019-01-30T01:42:06.774Z,7.12
2019-01-30T01:43:10.434Z,6.90
2019-01-30T01:44:14.012Z,6.90
2019-01-30T01:45:20.716Z,7.15
2019-01-30T01:46:24.395Z,6.92
2019-01-30T01:47:28.106Z,6.53
2019-01-30T01:48:31.705Z,6.90
2019-01-30T01:49:35.319Z,6.97
2019-01-30T01:50:38.897Z,6.33
2019-01-30T01:51:42.523Z,7.55
2019-01-30T01:52:46.333Z,6.35
2019-01-30T01:53:50.124Z,7.70
2019-01-30T01:54:53.727Z,7.58
2019-01-30T01:55:57.385Z,7.53
2019-01-30T01:57:00.995Z,7.20
2019-01-30T01:58:04.790Z,6.65
2019-01-30T01:59:08.521Z,6.45
2019-01-30T02:00:34.981Z,6.12
2019-01-30T02:01:30.689Z,6.45
2019-01-30T02:02:34.351Z,6.78
2019-01-30T02:03:38.022Z,7.10
2019-01-30T02:04:41.711Z,6.87
2019-01-30T02:05:45.433Z,6.85
2019-01-30T02:06:49.068Z,6.67
2019-01-30T02:07:53.024Z,6.28
2019-01-30T02:08:56.628Z,6.78
2019-01-30T02:10:00.308Z,6.85
2019-01-30T02:11:04.091Z,7.25
2019-01-30T02:12:07.854Z,7.00
2019-01-30T02:13:11.495Z,7.33
2019-01-30T02:14:15.119Z,7.37
2019-01-30T02:15:20.373Z,7.00
2019-01-30T02:16:24.017Z,7.20
2019-01-30T02:17:27.603Z,7.67
2019-01-30T02:18:31.201Z,7.25
2019-01-30T02:19:34.883Z,6.67
2019-01-30T02:20:38.488Z,6.70
2019-01-30T02:21:42.236Z,7.80
2019-01-30T02:22:45.898Z,6.12
2019-01-30T02:23:49.532Z,7.00
2019-01-30T02:24:53.125Z,6.80
2019-01-30T02:25:56.698Z,7.25
2019-01-30T02:27:00.314Z,6.85
2019-01-30T02:28:04.023Z,7.37
2019-01-30T02:29:07.730Z,7.08
2019-01-30T02:30:17.164Z,7.25
2019-01-30T02:31:20.743Z,7.53
2019-01-30T02:32:24.370Z,6.75
2019-01-30T02:33:27.982Z,7.10
2019-01-30T02:34:31.682Z,7.08
2019-01-30T02:35:35.310Z,7.65
2019-01-30T02:36:40.649Z,6.83
2019-01-30T02:37:44.354Z,7.45
2019-01-30T02:38:47.992Z,7.72
2019-01-30T02:39:51.671Z,7.10
2019-01-30T02:40:55.313Z,8.03
2019-01-30T02:41:58.975Z,6.95
2019-01-30T02:43:02.662Z,6.75
2019-01-30T02:44:06.372Z,7.10
2019-01-30T02:45:15.356Z,7.87
2019-01-30T02:46:19.026Z,7.17
2019-01-30T02:47:22.612Z,7.05
2019-01-30T02:48:26.204Z,7.35
2019-01-30T02:49:29.866Z,8.20
2019-01-30T02:50:35.114Z,7.22
2019-01-30T02:51:38.856Z,6.75
2019-01-30T02:52:42.545Z,8.25
2019-01-30T02:53:46.185Z,7.50
2019-01-30T02:54:49.799Z,7.90
2019-01-30T02:55:53.382Z,7.97
2019-01-30T02:56:57.105Z,7.58
2019-01-30T02:58:00.679Z,7.12
2019-01-30T02:59:04.778Z,8.10
2019-01-30T03:00:11.475Z,7.28
2019-01-30T03:01:15.072Z,7.70
2019-01-30T03:02:20.308Z,7.65
2019-01-30T03:03:23.929Z,7.92
2019-01-30T03:04:27.623Z,8.00
2019-01-30T03:05:31.756Z,8.08
2019-01-30T03:06:35.398Z,8.15
2019-01-30T03:07:39.138Z,8.53
2019-01-30T03:08:42.736Z,7.53
2019-01-30T03:09:46.490Z,7.75
2019-01-30T03:10:50.091Z,7.67
2019-01-30T03:11:53.744Z,7.55
2019-01-30T03:12:57.428Z,7.90
2019-01-30T03:14:01.038Z,7.70
2019-01-30T03:15:07.406Z,8.70
2019-01-30T03:16:11.011Z,7.85
2019-01-30T03:17:14.694Z,8.20
2019-01-30T03:18:18.249Z,7.25
2019-01-30T03:19:21.843Z,8.18
2019-01-30T03:20:28.102Z,8.53
2019-01-30T03:21:31.669Z,8.58
2019-01-30T03:22:35.400Z,7.72
2019-01-30T03:23:38.988Z,7.92
2019-01-30T03:24:42.603Z,8.18
2019-01-30T03:25:46.227Z,7.65
2019-01-30T03:26:49.851Z,8.15
2019-01-30T03:27:53.696Z,7.45
2019-01-30T03:28:57.372Z,8.28
2019-01-30T03:30:00.977Z,8.33
2019-01-30T03:31:17.050Z,8.35
2019-01-30T03:32:09.949Z,8.15
2019-01-30T03:33:13.565Z,7.83
2019-01-30T03:34:17.252Z,7.50
2019-01-30T03:35:20.941Z,7.60
2019-01-30T03:36:24.619Z,7.42
2019-01-30T03:37:28.215Z,7.47
2019-01-30T03:38:31.826Z,7.60
2019-01-30T03:39:35.427Z,7.72
2019-01-30T03:40:39.158Z,8.43
2019-01-30T03:41:42.776Z,8.23
2019-01-30T03:42:46.448Z,7.70
2019-01-30T03:43:50.120Z,7.83
2019-01-30T03:44:53.733Z,8.15
2019-01-30T03:45:57.392Z,8.63
2019-01-30T03:47:00.981Z,8.23
2019-01-30T03:48:04.810Z,7.55
2019-01-30T03:49:08.456Z,7.55
2019-01-30T03:50:13.583Z,8.45
2019-01-30T03:51:17.265Z,8.53
2019-01-30T03:52:20.863Z,8.25
2019-01-30T03:53:24.549Z,8.05
2019-01-30T03:54:28.417Z,8.23
2019-01-30T03:55:32.035Z,7.97
2019-01-30T03:56:35.650Z,7.85
2019-01-30T03:57:39.313Z,8.33
2019-01-30T03:58:42.962Z,8.35
2019-01-30T03:59:46.632Z,8.25
2019-01-30T04:00:50.441Z,8.63
2019-01-30T04:01:54.080Z,8.40
2019-01-30T04:02:57.798Z,8.85
2019-01-30T04:04:01.515Z,9.50
2019-01-30T04:05:06.949Z,7.72
2019-01-30T04:06:10.627Z,7.97
2019-01-30T04:07:14.243Z,7.90
2019-01-30T04:08:17.878Z,8.05
2019-01-30T04:09:21.605Z,8.90
2019-01-30T04:10:25.336Z,8.58
2019-01-30T04:11:29.102Z,8.65
2019-01-30T04:12:32.730Z,8.23
2019-01-30T04:13:36.355Z,8.40
2019-01-30T04:14:39.944Z,7.97
2019-01-30T04:15:43.575Z,9.60
2019-01-30T04:16:47.191Z,8.23
2019-01-30T04:17:50.920Z,8.90
2019-01-30T04:18:54.614Z,8.00
2019-01-30T04:19:58.238Z,8.45
2019-01-30T04:21:01.848Z,8.05
2019-01-30T04:22:05.565Z,8.60
2019-01-30T04:23:09.206Z,7.95
2019-01-30T04:24:12.798Z,8.43
2019-01-30T04:25:16.533Z,8.60
2019-01-30T04:26:21.827Z,8.43
2019-01-30T04:27:25.403Z,8.35
2019-01-30T04:28:29.070Z,8.05
2019-01-30T04:29:32.668Z,8.70
2019-01-30T04:30:36.290Z,7.97
2019-01-30T04:31:39.968Z,9.63
2019-01-30T04:32:43.616Z,7.37
2019-01-30T04:33:47.198Z,8.35
2019-01-30T04:34:50.822Z,9.05
2019-01-30T04:35:54.464Z,8.53
2019-01-30T04:36:58.141Z,9.13
2019-01-30T04:38:01.763Z,8.63
2019-01-30T04:39:07.333Z,8.65
2019-01-30T04:40:13.884Z,8.05
2019-01-30T04:41:17.500Z,8.60
2019-01-30T04:42:21.127Z,8.58
2019-01-30T04:43:24.734Z,7.83
2019-01-30T04:44:28.373Z,9.10
2019-01-30T04:45:31.967Z,7.50
2019-01-30T04:46:35.596Z,8.73
2019-01-30T04:47:39.358Z,9.00
2019-01-30T04:48:42.965Z,9.20
2019-01-30T04:49:46.553Z,8.35
2019-01-30T04:50:50.142Z,8.93
2019-01-30T04:51:53.812Z,8.13
2019-01-30T04:52:57.451Z,8.93
2019-01-30T04:54:01.044Z,7.72
2019-01-30T04:55:06.767Z,8.75
2019-01-30T04:56:10.380Z,8.03
2019-01-30T04:57:13.998Z,8.43
2019-01-30T04:58:17.672Z,9.03
2019-01-30T04:59:21.333Z,9.00
2019-01-30T05:00:25.467Z,10.05
2019-01-30T05:01:29.054Z,8.50
2019-01-30T05:02:32.668Z,8.53
2019-01-30T05:03:36.288Z,8.85
2019-01-30T05:04:39.892Z,8.48
2019-01-30T05:05:43.557Z,9.00
2019-01-30T05:06:47.148Z,8.25
2019-01-30T05:07:50.816Z,9.83
2019-01-30T05:08:56.002Z,9.35
2019-01-30T05:09:59.739Z,7.62
2019-01-30T05:11:03.397Z,8.90
2019-01-30T05:12:07.020Z,8.33
2019-01-30T05:13:10.678Z,9.10
2019-01-30T05:14:14.318Z,9.53
2019-01-30T05:15:19.507Z,8.18
2019-01-30T05:16:23.098Z,8.48
2019-01-30T05:17:26.731Z,8.93
2019-01-30T05:18:30.302Z,8.25
2019-01-30T05:19:33.970Z,9.83
2019-01-30T05:20:37.709Z,8.43
2019-01-30T05:21:41.405Z,8.80
2019-01-30T05:22:45.164Z,9.28
2019-01-30T05:23:48.770Z,9.28
2019-01-30T05:24:52.454Z,10.10
2019-01-30T05:25:56.061Z,8.88
2019-01-30T05:26:59.663Z,8.30
2019-01-30T05:28:03.262Z,8.88
2019-01-30T05:29:06.884Z,8.35
2019-01-30T05:30:16.649Z,9.48
2019-01-30T05:31:21.980Z,8.35
2019-01-30T05:32:25.678Z,9.30
2019-01-30T05:33:29.282Z,9.03
2019-01-30T05:34:32.950Z,9.25
2019-01-30T05:35:36.577Z,8.78
2019-01-30T05:36:40.188Z,9.63
2019-01-30T05:37:43.787Z,8.40
2019-01-30T05:38:47.431Z,9.18
2019-01-30T05:39:51.085Z,9.25
2019-01-30T05:40:54.686Z,10.30
2019-01-30T05:41:58.293Z,9.85
2019-01-30T05:43:01.968Z,8.85
2019-01-30T05:44:05.626Z,8.75
2019-01-30T05:45:12.621Z,9.65
2019-01-30T05:46:16.247Z,10.32
2019-01-30T05:47:19.850Z,10.10
2019-01-30T05:48:23.440Z,10.00
2019-01-30T05:49:29.184Z,9.38
2019-01-30T05:50:32.426Z,9.35
2019-01-30T05:51:36.054Z,9.48
2019-01-30T05:52:40.106Z,9.80
2019-01-30T05:53:43.750Z,8.93
2019-01-30T05:54:47.452Z,9.73
2019-01-30T05:55:51.113Z,8.78
2019-01-30T05:56:54.753Z,9.60
2019-01-30T05:57:58.340Z,8.43
2019-01-30T05:59:02.067Z,9.58
2019-01-30T06:00:16.795Z,9.68
2019-01-30T06:01:20.392Z,9.58
2019-01-30T06:02:24.005Z,8.53
2019-01-30T06:03:27.604Z,8.75
2019-01-30T06:04:31.329Z,9.50
2019-01-30T06:05:34.951Z,10.30
2019-01-30T06:06:38.615Z,10.00
2019-01-30T06:07:42.300Z,8.80
2019-01-30T06:08:45.887Z,8.58
2019-01-30T06:09:49.577Z,11.55
2019-01-30T06:10:53.258Z,8.75
2019-01-30T06:11:56.863Z,9.73
2019-01-30T06:13:00.691Z,8.53
2019-01-30T06:14:04.663Z,8.40
2019-01-30T06:15:16.875Z,9.38
2019-01-30T06:16:20.584Z,9.95
2019-01-30T06:17:24.261Z,9.43
2019-01-30T06:18:28.424Z,10.00
2019-01-30T06:19:32.081Z,10.03
2019-01-30T06:20:35.941Z,10.00
2019-01-30T06:21:39.617Z,9.35
2019-01-30T06:22:43.404Z,8.75
2019-01-30T06:23:47.055Z,9.65
2019-01-30T06:24:51.040Z,8.45
2019-01-30T06:25:54.646Z,9.10
2019-01-30T06:26:58.445Z,8.55
2019-01-30T06:28:02.250Z,9.23
2019-01-30T06:29:05.994Z,8.95
2019-01-30T06:30:13.077Z,10.20
2019-01-30T06:31:16.769Z,9.35
2019-01-30T06:32:21.804Z,9.18
2019-01-30T06:33:25.750Z,9.33
2019-01-30T06:34:29.342Z,9.28
2019-01-30T06:35:32.968Z,9.35
2019-01-30T06:36:36.556Z,8.58
2019-01-30T06:37:40.232Z,9.38
2019-01-30T06:38:43.870Z,9.33
2019-01-30T06:39:47.500Z,9.85
2019-01-30T06:40:51.126Z,9.43
2019-01-30T06:41:54.746Z,9.10
2019-01-30T06:42:58.400Z,9.53
2019-01-30T06:44:02.040Z,8.38
2019-01-30T06:45:07.210Z,9.33
2019-01-30T06:46:10.810Z,8.18
2019-01-30T06:47:14.548Z,8.33
2019-01-30T06:48:18.338Z,8.33
2019-01-30T06:49:21.932Z,8.40
2019-01-30T06:50:25.681Z,8.65
2019-01-30T06:51:29.303Z,9.15
2019-01-30T06:52:32.897Z,8.68
2019-01-30T06:53:36.507Z,8.40
2019-01-30T06:54:41.064Z,8.38
2019-01-30T06:55:44.697Z,7.62
2019-01-30T06:56:48.347Z,8.20
2019-01-30T06:57:51.938Z,8.48
2019-01-30T06:58:55.542Z,8.00
2019-01-30T06:59:59.215Z,7.22
2019-01-30T07:01:02.818Z,8.10
2019-01-30T07:02:06.615Z,8.63
2019-01-30T07:03:10.217Z,7.97
2019-01-30T07:04:13.815Z,7.85
2019-01-30T07:05:17.728Z,7.20
2019-01-30T07:06:21.419Z,9.95
2019-01-30T07:07:25.093Z,7.65
2019-01-30T07:08:28.678Z,8.35
2019-01-30T07:09:32.340Z,9.45
2019-01-30T07:10:35.996Z,8.05
2019-01-30T07:11:39.734Z,8.48
2019-01-30T07:12:43.439Z,7.90
2019-01-30T07:13:47.095Z,7.67
2019-01-30T07:14:50.750Z,7.33
2019-01-30T07:15:54.334Z,7.67
2019-01-30T07:16:57.930Z,7.80
2019-01-30T07:18:01.539Z,7.25
2019-01-30T07:19:05.200Z,7.85
2019-01-30T07:20:11.759Z,8.10
2019-01-30T07:21:15.365Z,7.30
2019-01-30T07:22:18.961Z,8.28
2019-01-30T07:23:22.595Z,7.60
2019-01-30T07:24:26.180Z,7.83
2019-01-30T07:25:29.784Z,27.95
2019-01-30T07:26:33.385Z,31.52
2019-01-30T07:27:37.191Z,10.70
2019-01-30T07:28:40.794Z,8.50
2019-01-30T07:29:44.442Z,8.18
2019-01-30T07:30:48.102Z,9.53
2019-01-30T07:31:51.688Z,9.75
2019-01-30T07:32:55.279Z,9.00
2019-01-30T07:33:58.899Z,10.32
2019-01-30T07:35:02.531Z,48.38
2019-01-30T07:36:06.243Z,27.87
2019-01-30T07:37:09.910Z,21.33
2019-01-30T07:38:13.525Z,34.67
2019-01-30T07:39:17.174Z,105.52
2019-01-30T07:40:20.950Z,79.58
2019-01-30T07:41:24.594Z,45.45
2019-01-30T07:42:28.244Z,15.63
2019-01-30T07:43:31.852Z,46.28
2019-01-30T07:44:35.442Z,22.52
2019-01-30T07:45:39.036Z,9.33
2019-01-30T07:46:42.744Z,13.08
2019-01-30T07:47:46.416Z,15.60
2019-01-30T07:48:50.022Z,11.18
2019-01-30T07:49:53.630Z,24.60
2019-01-30T07:50:57.297Z,19.30
2019-01-30T07:52:00.942Z,16.05
2019-01-30T07:53:04.666Z,13.53
2019-01-30T07:54:08.255Z,11.80
2019-01-30T07:55:16.258Z,11.53
2019-01-30T07:56:19.897Z,7.70
2019-01-30T07:57:23.517Z,11.30
2019-01-30T07:58:27.223Z,11.75
2019-01-30T07:59:32.116Z,10.40
2019-01-30T08:00:35.712Z,8.28
2019-01-30T08:01:39.335Z,8.40
2019-01-30T08:02:52.652Z,9.73
2019-01-30T08:03:48.198Z,16.25
2019-01-30T08:04:51.817Z,20.43
2019-01-30T08:05:55.403Z,6.72
2019-01-30T08:06:59.027Z,5.62
2019-01-30T08:08:02.631Z,6.90
2019-01-30T08:09:08.475Z,9.03
2019-01-30T08:10:14.541Z,8.23
2019-01-30T08:11:18.121Z,7.50
2019-01-30T08:12:21.706Z,6.62
2019-01-30T08:13:25.337Z,6.65
2019-01-30T08:14:28.936Z,5.15
2019-01-30T08:15:32.533Z,7.20
2019-01-30T08:16:36.160Z,6.85
2019-01-30T08:17:39.724Z,10.45
2019-01-30T08:18:43.371Z,6.80
2019-01-30T08:19:47.017Z,6.47
2019-01-30T08:20:50.668Z,6.90
2019-01-30T08:21:54.260Z,6.35
2019-01-30T08:22:58.042Z,6.47
2019-01-30T08:24:02.071Z,7.30
2019-01-30T08:25:08.716Z,6.85
2019-01-30T08:26:12.341Z,7.20
2019-01-30T08:27:16.242Z,6.28
2019-01-30T08:28:20.133Z,4.47
2019-01-30T08:29:23.875Z,5.33
2019-01-30T08:30:29.482Z,6.12
2019-01-30T08:31:33.228Z,6.90
2019-01-30T08:32:37.215Z,6.05
2019-01-30T08:33:40.844Z,6.45
2019-01-30T08:34:44.444Z,6.40
2019-01-30T08:35:48.050Z,7.25
2019-01-30T08:36:51.639Z,6.12
2019-01-30T08:37:55.802Z,7.10
2019-01-30T08:38:59.391Z,6.20
2019-01-30T08:40:03.134Z,6.28
2019-01-30T08:41:06.858Z,6.15
2019-01-30T08:42:10.609Z,7.15
2019-01-30T08:43:14.197Z,6.92
2019-01-30T08:44:17.817Z,7.37
2019-01-30T08:45:26.584Z,5.97
2019-01-30T08:46:30.159Z,5.25
2019-01-30T08:47:33.799Z,6.50
2019-01-30T08:48:37.382Z,6.08
2019-01-30T08:49:41.003Z,6.30
2019-01-30T08:50:44.608Z,6.83
2019-01-30T08:51:48.199Z,6.25
2019-01-30T08:52:51.889Z,7.47
2019-01-30T08:53:55.465Z,7.40
2019-01-30T08:54:59.040Z,6.80
2019-01-30T08:56:02.671Z,6.87
2019-01-30T08:57:06.370Z,7.53
2019-01-30T08:58:09.961Z,7.15
2019-01-30T08:59:13.537Z,6.85
2019-01-30T09:00:19.635Z,6.70
2019-01-30T09:01:23.228Z,7.03
2019-01-30T09:02:26.876Z,6.65
2019-01-30T09:03:30.469Z,6.28
2019-01-30T09:04:34.043Z,6.20
2019-01-30T09:05:37.645Z,6.33
2019-01-30T09:06:41.217Z,6.97
2019-01-30T09:07:44.847Z,6.40
2019-01-30T09:08:48.502Z,6.30
2019-01-30T09:09:52.111Z,6.30
2019-01-30T09:10:55.714Z,7.25
2019-01-30T09:11:59.409Z,7.53
2019-01-30T09:13:03.048Z,7.55
2019-01-30T09:14:06.678Z,6.65
2019-01-30T09:15:13.023Z,7.10
2019-01-30T09:16:16.591Z,6.30
2019-01-30T09:17:20.405Z,6.70
2019-01-30T09:18:23.979Z,6.80
2019-01-30T09:19:27.595Z,6.97
2019-01-30T09:20:31.194Z,6.83
2019-01-30T09:21:34.779Z,7.60
2019-01-30T09:22:38.380Z,13.78
2019-01-30T09:23:42.036Z,7.65
2019-01-30T09:24:45.621Z,6.80
2019-01-30T09:25:49.217Z,7.08
2019-01-30T09:26:52.851Z,5.72
2019-01-30T09:27:56.521Z,5.97
2019-01-30T09:29:00.280Z,6.58
2019-01-30T09:30:05.788Z,6.78
2019-01-30T09:31:09.396Z,6.20
2019-01-30T09:32:13.121Z,6.72
2019-01-30T09:33:25.645Z,6.28
2019-01-30T09:34:22.049Z,5.80
2019-01-30T09:35:25.745Z,6.72
2019-01-30T09:36:29.347Z,5.80
2019-01-30T09:37:32.909Z,6.28
2019-01-30T09:38:36.538Z,5.80
2019-01-30T09:39:40.137Z,5.70
2019-01-30T09:40:43.846Z,7.10
2019-01-30T09:41:47.421Z,5.75
2019-01-30T09:42:51.095Z,6.10
2019-01-30T09:43:54.664Z,6.60
2019-01-30T09:44:58.276Z,5.65
2019-01-30T09:46:01.971Z,6.70
2019-01-30T09:47:05.740Z,6.90
2019-01-30T09:48:09.499Z,6.67
2019-01-30T09:49:13.094Z,6.17
2019-01-30T09:50:18.930Z,6.60
2019-01-30T09:51:22.505Z,5.75
2019-01-30T09:52:27.231Z,6.53
2019-01-30T09:53:30.867Z,6.12
2019-01-30T09:54:34.423Z,6.53
2019-01-30T09:55:38.132Z,6.15
2019-01-30T09:56:41.724Z,5.40
2019-01-30T09:57:45.311Z,6.55
2019-01-30T09:58:48.989Z,6.47
2019-01-30T09:59:52.612Z,7.08
2019-01-30T10:00:56.244Z,6.70
2019-01-30T10:01:59.904Z,6.40
2019-01-30T10:03:03.673Z,5.60
2019-01-30T10:04:07.282Z,5.97
2019-01-30T10:05:12.713Z,6.28
2019-01-30T10:06:16.412Z,5.87
2019-01-30T10:07:20.009Z,5.67
2019-01-30T10:08:23.634Z,5.95
2019-01-30T10:09:27.332Z,7.08
2019-01-30T10:10:33.111Z,5.00
2019-01-30T10:11:36.800Z,4.97
2019-01-30T10:12:40.675Z,5.28
2019-01-30T10:13:44.273Z,5.20
2019-01-30T10:14:47.852Z,5.72
2019-01-30T10:15:51.447Z,5.72
2019-01-30T10:16:55.074Z,5.35
2019-01-30T10:17:58.690Z,5.55
2019-01-30T10:19:02.272Z,5.03
2019-01-30T10:20:08.937Z,4.97
2019-01-30T10:21:12.634Z,5.28
2019-01-30T10:22:16.301Z,4.90
2019-01-30T10:23:19.877Z,5.25
2019-01-30T10:24:23.566Z,5.37
2019-01-30T10:25:27.354Z,4.67
2019-01-30T10:26:30.921Z,4.25
2019-01-30T10:27:34.505Z,4.67
2019-01-30T10:28:38.138Z,4.50
2019-01-30T10:29:41.783Z,4.87
2019-01-30T10:30:47.012Z,4.78
2019-01-30T10:31:50.597Z,4.92
2019-01-30T10:32:54.252Z,4.95
2019-01-30T10:33:57.902Z,4.50
2019-01-30T10:35:01.521Z,4.20
2019-01-30T10:36:05.652Z,4.37
2019-01-30T10:37:09.240Z,5.35
2019-01-30T10:38:12.896Z,4.87
2019-01-30T10:39:16.529Z,5.53
2019-01-30T10:40:21.683Z,4.75
2019-01-30T10:41:25.395Z,5.30
2019-01-30T10:42:28.981Z,5.30
2019-01-30T10:43:32.588Z,5.30
2019-01-30T10:44:36.164Z,5.00
2019-01-30T10:45:39.894Z,5.20
2019-01-30T10:46:43.550Z,4.60
2019-01-30T10:47:47.263Z,4.55
2019-01-30T10:48:50.846Z,5.00
2019-01-30T10:49:54.467Z,5.35
2019-01-30T10:50:58.101Z,4.58
2019-01-30T10:52:01.695Z,4.75
2019-01-30T10:53:05.522Z,4.75
2019-01-30T10:54:09.111Z,4.65
2019-01-30T10:55:18.108Z,4.85
2019-01-30T10:56:21.795Z,5.00
2019-01-30T10:57:25.466Z,5.25
2019-01-30T10:58:29.049Z,5.20
2019-01-30T10:59:32.672Z,4.83
2019-01-30T11:00:41.666Z,5.17
2019-01-30T11:01:45.355Z,5.00
2019-01-30T11:02:49.027Z,5.17
2019-01-30T11:03:57.517Z,4.30
2019-01-30T11:04:58.093Z,4.75
2019-01-30T11:06:01.668Z,4.78
2019-01-30T11:07:05.252Z,5.17
2019-01-30T11:08:08.994Z,4.78
2019-01-30T11:09:12.719Z,5.55
2019-01-30T11:10:18.387Z,5.03
2019-01-30T11:11:22.021Z,4.60
2019-01-30T11:12:25.625Z,5.30
2019-01-30T11:13:29.213Z,6.12
2019-01-30T11:14:32.848Z,4.40
2019-01-30T11:15:36.596Z,4.87
2019-01-30T11:16:40.213Z,4.80
2019-01-30T11:17:43.855Z,5.35
2019-01-30T11:18:47.482Z,5.15
2019-01-30T11:19:51.163Z,5.33
2019-01-30T11:20:54.852Z,5.12
2019-01-30T11:21:58.486Z,5.05
2019-01-30T11:23:02.138Z,5.20
2019-01-30T11:24:05.851Z,5.40
2019-01-30T11:25:12.536Z,4.78
2019-01-30T11:26:16.133Z,4.87
2019-01-30T11:27:19.726Z,5.53
2019-01-30T11:28:23.438Z,4.67
2019-01-30T11:29:27.067Z,4.42
2019-01-30T11:30:30.727Z,5.45
2019-01-30T11:31:34.384Z,4.92
2019-01-30T11:32:37.974Z,5.75
2019-01-30T11:33:41.604Z,4.95
2019-01-30T11:34:45.186Z,4.33
2019-01-30T11:35:48.902Z,7.47
2019-01-30T11:36:52.526Z,7.72
2019-01-30T11:37:56.181Z,5.90
2019-01-30T11:38:59.778Z,5.37
2019-01-30T11:40:04.807Z,4.83
2019-01-30T11:41:08.508Z,5.15
2019-01-30T11:42:14.968Z,5.25
2019-01-30T11:43:18.586Z,5.00
2019-01-30T11:44:22.209Z,5.37
2019-01-30T11:45:36.954Z,5.40
2019-01-30T11:46:40.590Z,14.80
2019-01-30T11:47:44.250Z,7.85
2019-01-30T11:48:56.229Z,4.95
2019-01-30T11:49:53.151Z,4.85
2019-01-30T11:50:56.815Z,4.90
2019-01-30T11:52:00.573Z,5.60
2019-01-30T11:53:04.595Z,4.50
2019-01-30T11:54:08.339Z,4.65
2019-01-30T11:55:14.243Z,5.40
2019-01-30T11:56:17.882Z,6.30
2019-01-30T11:57:21.575Z,6.92
2019-01-30T11:58:25.232Z,5.80
2019-01-30T11:59:28.839Z,5.03
2019-01-30T12:00:41.680Z,5.12
2019-01-30T12:01:45.300Z,7.62
2019-01-30T12:02:49.021Z,6.17
2019-01-30T12:03:52.633Z,6.55
2019-01-30T12:04:56.241Z,5.75
2019-01-30T12:05:59.830Z,10.68
2019-01-30T12:07:03.530Z,5.90
2019-01-30T12:08:07.591Z,4.92
2019-01-30T12:09:11.229Z,4.95
2019-01-30T12:10:15.348Z,4.70
2019-01-30T12:11:19.030Z,4.95
2019-01-30T12:12:22.625Z,5.90
2019-01-30T12:13:26.295Z,5.17
2019-01-30T12:14:29.914Z,5.15
2019-01-30T12:15:33.570Z,4.72
2019-01-30T12:16:37.280Z,7.62
2019-01-30T12:17:40.888Z,8.25
2019-01-30T12:18:44.545Z,6.87
2019-01-30T12:19:48.162Z,5.72
2019-01-30T12:20:52.094Z,4.70
2019-01-30T12:21:55.860Z,5.40
2019-01-30T12:22:59.570Z,7.58
2019-01-30T12:24:03.221Z,12.25
2019-01-30T12:25:09.989Z,5.17
2019-01-30T12:26:13.614Z,5.87
2019-01-30T12:27:17.200Z,5.08
2019-01-30T12:28:20.910Z,4.70
2019-01-30T12:29:24.512Z,5.70
2019-01-30T12:30:31.046Z,5.47
2019-01-30T12:31:34.684Z,5.42
2019-01-30T12:32:38.314Z,5.22
2019-01-30T12:33:41.922Z,5.22
2019-01-30T12:34:45.506Z,5.50
2019-01-30T12:35:49.214Z,6.08
2019-01-30T12:36:52.804Z,5.87
2019-01-30T12:37:56.479Z,5.92
2019-01-30T12:39:00.091Z,5.53
2019-01-30T12:40:05.587Z,6.25
2019-01-30T12:41:09.285Z,6.10
2019-01-30T12:42:12.969Z,5.90
2019-01-30T12:43:16.613Z,5.12
2019-01-30T12:44:20.222Z,5.42
2019-01-30T12:45:37.351Z,4.40
2019-01-30T12:46:41.064Z,5.95
2019-01-30T12:47:44.795Z,6.55
2019-01-30T12:48:48.940Z,6.30
2019-01-30T12:49:52.691Z,6.40
2019-01-30T12:50:56.336Z,5.45
2019-01-30T12:51:59.970Z,5.75
2019-01-30T12:53:03.665Z,5.92
2019-01-30T12:54:07.289Z,5.40
2019-01-30T12:55:12.036Z,5.05
2019-01-30T12:56:15.637Z,5.65
2019-01-30T12:57:19.254Z,5.10
2019-01-30T12:58:22.851Z,5.28
2019-01-30T12:59:26.516Z,5.20
2019-01-30T13:00:38.525Z,5.10
2019-01-30T13:01:42.141Z,5.30
2019-01-30T13:02:46.679Z,5.50
2019-01-30T13:03:50.319Z,5.78
2019-01-30T13:04:53.919Z,5.12
2019-01-30T13:05:57.515Z,4.72
2019-01-30T13:07:01.182Z,6.62
2019-01-30T13:08:05.603Z,5.85
2019-01-30T13:09:09.403Z,9.95
2019-01-30T13:10:13.551Z,6.30
2019-01-30T13:11:17.154Z,6.95
2019-01-30T13:12:20.739Z,7.67
2019-01-30T13:13:24.343Z,5.37
2019-01-30T13:14:27.972Z,6.97
2019-01-30T13:15:31.663Z,5.42
2019-01-30T13:16:35.275Z,6.80
2019-01-30T13:17:38.870Z,7.00
2019-01-30T13:18:42.458Z,5.67
2019-01-30T13:19:46.167Z,5.65
2019-01-30T13:20:49.808Z,5.67
2019-01-30T13:21:53.415Z,5.22
2019-01-30T13:22:57.002Z,5.05
2019-01-30T13:24:00.603Z,5.62
2019-01-30T13:25:06.165Z,5.70
2019-01-30T13:26:09.756Z,8.93
2019-01-30T13:27:13.406Z,7.40
2019-01-30T13:28:17.000Z,7.67
2019-01-30T13:29:20.566Z,6.60
2019-01-30T13:30:27.049Z,10.25
2019-01-30T13:31:30.988Z,8.40
2019-01-30T13:32:34.629Z,6.65
2019-01-30T13:33:38.285Z,6.65
2019-01-30T13:34:48.822Z,7.42
2019-01-30T13:35:47.376Z,6.05
2019-01-30T13:36:51.016Z,6.05
2019-01-30T13:37:54.591Z,7.75
2019-01-30T13:38:58.211Z,6.22
2019-01-30T13:40:01.817Z,6.50
2019-01-30T13:41:05.528Z,6.10
2019-01-30T13:42:09.138Z,6.60
2019-01-30T13:43:12.881Z,6.65
2019-01-30T13:44:16.509Z,6.67
2019-01-30T13:45:20.171Z,5.10
2019-01-30T13:46:23.846Z,5.40
2019-01-30T13:47:27.527Z,7.72
2019-01-30T13:48:31.581Z,5.67
2019-01-30T13:49:35.240Z,9.95
2019-01-30T13:50:38.938Z,7.30
2019-01-30T13:51:42.534Z,8.35
2019-01-30T13:52:46.114Z,8.05
2019-01-30T13:53:49.797Z,6.42
2019-01-30T13:54:53.422Z,7.65
2019-01-30T13:55:57.038Z,6.90
2019-01-30T13:57:00.624Z,6.53
2019-01-30T13:58:04.298Z,7.25
2019-01-30T13:59:07.944Z,5.75
2019-01-30T14:00:26.456Z,7.50
2019-01-30T14:01:30.077Z,13.45
2019-01-30T14:02:33.661Z,7.95
2019-01-30T14:03:37.252Z,7.95
2019-01-30T14:04:40.932Z,7.35
2019-01-30T14:05:44.490Z,6.97
2019-01-30T14:06:48.126Z,6.40
2019-01-30T14:07:51.844Z,6.40
2019-01-30T14:08:55.530Z,5.30
2019-01-30T14:09:59.155Z,5.92